Share

Arvidsjaur, Sweden

Vidsel Air Base (ESPE) Elev 597 ft | 65.88 °N, 20.14 °E | Change Station

Current weather conditions updated 24 minutes ago

Scattered Clouds
Scattered Clouds
39 °F
Feels Like 39 °F
N
2
Wind Variable Wind from Variable
Sunrise 4:57 AM
Sunset 8:29 PM
Moon Waning Gibbous

Today is forecast to be Cooler than yesterday. Late day light rain.

Pressure 29.59 in
Visibility 6.2 miles
Clouds Few 7600 ft
Scattered Clouds 17000 ft
Dew Point 30 °F
Humidity 70%
Rainfall 0.00 in
Snow Depth Not available.
UV 0 out of 16
Pollen Not available.
Air Quality Not available.
Flu Activity Not available.
METAR ESPE 170350Z AUTO VRB02KT 9999NDV FEW076/// SCT170/// 04/M01 Q1002

More Conditions Fewer Conditions

Pressure 29.59 in
Visibility 6.2 miles
Clouds Few 7600 ft
Scattered Clouds 17000 ft
Dew Point 30 °F
Humidity 70%
Rainfall 0.00 in
Snow Depth Not available.
UV 0 out of 16
Pollen Not available.
Air Quality Not available.
Flu Activity Not available.
METAR ESPE 170350Z AUTO VRB02KT 9999NDV FEW076/// SCT170/// 04/M01 Q1002

More Conditions Fewer Conditions

10-Day Forecast

Almanac

Astronomy

Apr. 17, 2014 Rise Set
Actual Time 4:57 AM CEST 8:29 PM CEST
Civil Twilight 3:56 AM CEST 9:31 PM CEST
Nautical Twilight 2:17 AM CEST 11:14 PM CEST
Astronomical Twilight Sun does not rise Sun does not rise
Moon 11:51 PM CEST 5:36 AM CEST
Length of Visible Light 17h 34m
Length of Day
15h 31m
Tomorrow will be 7m 11s longer.
Waning Gibbous, 96% of the Moon is Illuminated
Today
Waning Gibbous
Apr 22
Last Quarter
Apr 29
New
May 6
First Quarter
May 14
Full

Yesterday's Extremes

Country Highs Country Lows

Community

  • symphony in blue....
    symphony in blue....
  • Dawn Surprise
    Dawn Surprise
  • Yucca delight
    Yucca delight
  • Sunset inside of the Ocean
    Sunset inside of the Ocean
  • Lunar eclipse 15 April 2014
    Lunar eclipse 15 April 2014

WunderPhotos

Upload Photos

1,701,847 photos uploaded!

WunderBlogs® & News

Nearby

Snow Depth

Not available.

Coastal Water Temperatures

Place Temperature
No Stations Reporting

Earthquake Activity

City Distance Mag. Time & Date
No recent earthquake activity has been reported nearby.
Minimum magnitude displayed is 2.5.

Nearby Weather Stations

There are no personal weather stations in this area.

What do you think?

We're not finished. Please let us know what you like, what you don't like, and what you are still missing.